sensor_id;sensor_type;location;lat;lon;timestamp;temperature;humidity
75517;DHT22;64097;52.548;13.406;2023-12-29T06:02:27;14.40;55.10
75517;DHT22;64097;52.548;13.406;2023-12-29T06:04:52;14.40;55.10
75517;DHT22;64097;52.548;13.406;2023-12-29T06:07:18;14.40;55.10
75517;DHT22;64097;52.548;13.406;2023-12-29T06:09:44;14.40;55.10
75517;DHT22;64097;52.548;13.406;2023-12-29T06:12:10;14.40;55.10
75517;DHT22;64097;52.548;13.406;2023-12-29T06:14:36;14.40;55.00
75517;DHT22;64097;52.548;13.406;2023-12-29T06:17:02;14.50;55.10
75517;DHT22;64097;52.548;13.406;2023-12-29T06:19:28;14.50;55.00
75517;DHT22;64097;52.548;13.406;2023-12-29T06:21:54;14.50;55.00
75517;DHT22;64097;52.548;13.406;2023-12-29T06:24:19;14.50;54.90
75517;DHT22;64097;52.548;13.406;2023-12-29T06:26:45;14.50;54.80
75517;DHT22;64097;52.548;13.406;2023-12-29T06:29:11;14.50;54.90
75517;DHT22;64097;52.548;13.406;2023-12-29T06:31:40;14.60;54.90
75517;DHT22;64097;52.548;13.406;2023-12-29T06:34:08;14.60;54.80
75517;DHT22;64097;52.548;13.406;2023-12-29T06:36:33;14.60;54.80
75517;DHT22;64097;52.548;13.406;2023-12-29T06:38:59;14.60;54.70
75517;DHT22;64097;52.548;13.406;2023-12-29T06:41:25;14.60;54.70
75517;DHT22;64097;52.548;13.406;2023-12-29T06:43:51;14.60;54.70
75517;DHT22;64097;52.548;13.406;2023-12-29T06:46:16;14.60;54.60
75517;DHT22;64097;52.548;13.406;2023-12-29T06:48:42;14.70;54.50
75517;DHT22;64097;52.548;13.406;2023-12-29T06:51:08;14.70;54.50
75517;DHT22;64097;52.548;13.406;2023-12-29T06:53:35;14.70;54.40
75517;DHT22;64097;52.548;13.406;2023-12-29T06:56:01;14.70;54.40
75517;DHT22;64097;52.548;13.406;2023-12-29T06:58:26;14.70;54.30
75517;DHT22;64097;52.548;13.406;2023-12-29T07:00:52;14.70;54.30
75517;DHT22;64097;52.548;13.406;2023-12-29T07:03:18;14.70;54.20
75517;DHT22;64097;52.548;13.406;2023-12-29T07:05:43;14.70;54.20
75517;DHT22;64097;52.548;13.406;2023-12-29T07:08:13;14.70;54.10
75517;DHT22;64097;52.548;13.406;2023-12-29T07:10:38;14.70;54.90
75517;DHT22;64097;52.548;13.406;2023-12-29T07:13:04;14.70;54.10
75517;DHT22;64097;52.548;13.406;2023-12-29T07:15:30;14.70;54.10
75517;DHT22;64097;52.548;13.406;2023-12-29T07:17:55;14.70;54.20
75517;DHT22;64097;52.548;13.406;2023-12-29T07:20:21;14.70;54.20
75517;DHT22;64097;52.548;13.406;2023-12-29T07:22:47;14.70;54.20
75517;DHT22;64097;52.548;13.406;2023-12-29T07:25:13;14.70;54.20
75517;DHT22;64097;52.548;13.406;2023-12-29T07:27:39;14.70;54.20
75517;DHT22;64097;52.548;13.406;2023-12-29T07:30:05;14.80;54.30
75517;DHT22;64097;52.548;13.406;2023-12-29T07:32:30;14.80;54.30
75517;DHT22;64097;52.548;13.406;2023-12-29T07:34:56;14.80;54.30
75517;DHT22;64097;52.548;13.406;2023-12-29T07:37:23;14.80;54.20
75517;DHT22;64097;52.548;13.406;2023-12-29T07:39:48;14.80;54.20
75517;DHT22;64097;52.548;13.406;2023-12-29T07:42:14;14.90;54.20
75517;DHT22;64097;52.548;13.406;2023-12-29T07:44:42;14.90;54.20
75517;DHT22;64097;52.548;13.406;2023-12-29T07:47:08;15.00;54.00
75517;DHT22;64097;52.548;13.406;2023-12-29T07:49:35;15.00;54.00
75517;DHT22;64097;52.548;13.406;2023-12-29T07:52:01;15.00;53.90
75517;DHT22;64097;52.548;13.406;2023-12-29T07:54:27;15.00;53.90
75517;DHT22;64097;52.548;13.406;2023-12-29T07:56:52;15.00;53.90
75517;DHT22;64097;52.548;13.406;2023-12-29T07:59:18;15.00;53.80
75517;DHT22;64097;52.548;13.406;2023-12-29T08:01:44;15.00;53.90
75517;DHT22;64097;52.548;13.406;2023-12-29T08:04:10;15.00;54.00
75517;DHT22;64097;52.548;13.406;2023-12-29T08:06:37;15.00;54.00
75517;DHT22;64097;52.548;13.406;2023-12-29T08:09:04;15.00;53.90
75517;DHT22;64097;52.548;13.406;2023-12-29T08:11:29;15.10;54.00
75517;DHT22;64097;52.548;13.406;2023-12-29T08:13:55;15.10;53.90
75517;DHT22;64097;52.548;13.406;2023-12-29T08:16:21;15.10;53.90
75517;DHT22;64097;52.548;13.406;2023-12-29T08:18:48;15.20;53.90
75517;DHT22;64097;52.548;13.406;2023-12-29T08:21:21;15.20;53.90
75517;DHT22;64097;52.548;13.406;2023-12-29T08:23:47;15.20;53.80
75517;DHT22;64097;52.548;13.406;2023-12-29T08:26:13;15.20;53.80
75517;DHT22;64097;52.548;13.406;2023-12-29T08:28:39;15.20;53.80
75517;DHT22;64097;52.548;13.406;2023-12-29T08:31:06;15.30;53.80
75517;DHT22;64097;52.548;13.406;2023-12-29T08:33:33;15.30;53.80
75517;DHT22;64097;52.548;13.406;2023-12-29T08:35:58;15.30;53.70
75517;DHT22;64097;52.548;13.406;2023-12-29T08:38:29;15.30;53.70
75517;DHT22;64097;52.548;13.406;2023-12-29T08:40:56;15.30;53.60
75517;DHT22;64097;52.548;13.406;2023-12-29T08:43:22;15.40;53.60
75517;DHT22;64097;52.548;13.406;2023-12-29T08:45:48;15.30;53.50
75517;DHT22;64097;52.548;13.406;2023-12-29T08:48:14;15.30;53.50
75517;DHT22;64097;52.548;13.406;2023-12-29T08:50:39;15.30;54.20
75517;DHT22;64097;52.548;13.406;2023-12-29T08:53:05;15.30;54.20
75517;DHT22;64097;52.548;13.406;2023-12-29T08:55:31;15.30;53.50
75517;DHT22;64097;52.548;13.406;2023-12-29T08:57:57;15.30;53.50
75517;DHT22;64097;52.548;13.406;2023-12-29T09:00:23;15.30;53.50
75517;DHT22;64097;52.548;13.406;2023-12-29T09:02:49;15.30;53.40
75517;DHT22;64097;52.548;13.406;2023-12-29T09:05:14;15.30;53.40
75517;DHT22;64097;52.548;13.406;2023-12-29T09:07:40;15.30;53.40
75517;DHT22;64097;52.548;13.406;2023-12-29T09:10:06;15.30;53.50
75517;DHT22;64097;52.548;13.406;2023-12-29T09:12:37;15.30;53.50
75517;DHT22;64097;52.548;13.406;2023-12-29T09:15:04;15.30;53.60
75517;DHT22;64097;52.548;13.406;2023-12-29T09:17:30;15.30;53.70
75517;DHT22;64097;52.548;13.406;2023-12-29T09:19:56;15.30;53.70
75517;DHT22;64097;52.548;13.406;2023-12-29T09:22:21;15.30;53.70
75517;DHT22;64097;52.548;13.406;2023-12-29T09:24:47;15.30;53.70
75517;DHT22;64097;52.548;13.406;2023-12-29T09:27:13;15.30;53.70
75517;DHT22;64097;52.548;13.406;2023-12-29T09:29:39;15.40;53.80
75517;DHT22;64097;52.548;13.406;2023-12-29T09:32:05;15.40;53.80
75517;DHT22;64097;52.548;13.406;2023-12-29T09:34:31;15.40;53.80
75517;DHT22;64097;52.548;13.406;2023-12-29T09:36:57;15.50;53.80
75517;DHT22;64097;52.548;13.406;2023-12-29T09:39:23;15.50;53.80
75517;DHT22;64097;52.548;13.406;2023-12-29T09:41:52;15.50;53.70
75517;DHT22;64097;52.548;13.406;2023-12-29T09:44:20;15.50;53.80
75517;DHT22;64097;52.548;13.406;2023-12-29T09:46:52;15.60;53.70
75517;DHT22;64097;52.548;13.406;2023-12-29T09:49:19;15.60;53.40
75517;DHT22;64097;52.548;13.406;2023-12-29T09:51:45;15.70;53.50
75517;DHT22;64097;52.548;13.406;2023-12-29T09:54:11;15.70;53.40
75517;DHT22;64097;52.548;13.406;2023-12-29T09:56:39;15.70;53.30
75517;DHT22;64097;52.548;13.406;2023-12-29T09:59:05;15.80;53.20
75517;DHT22;64097;52.548;13.406;2023-12-29T10:01:32;15.80;53.20
75517;DHT22;64097;52.548;13.406;2023-12-29T10:03:58;15.80;53.10
75517;DHT22;64097;52.548;13.406;2023-12-29T10:06:25;15.80;53.10
75517;DHT22;64097;52.548;13.406;2023-12-29T10:08:51;15.80;53.10
75517;DHT22;64097;52.548;13.406;2023-12-29T10:11:22;15.90;53.10
75517;DHT22;64097;52.548;13.406;2023-12-29T10:13:54;15.90;53.10
75517;DHT22;64097;52.548;13.406;2023-12-29T10:16:31;15.90;52.90
75517;DHT22;64097;52.548;13.406;2023-12-29T10:21:56;16.00;52.60
75517;DHT22;64097;52.548;13.406;2023-12-29T10:24:22;16.10;52.50
75517;DHT22;64097;52.548;13.406;2023-12-29T10:26:49;16.10;52.40
75517;DHT22;64097;52.548;13.406;2023-12-29T10:29:18;16.10;52.40
75517;DHT22;64097;52.548;13.406;2023-12-29T10:31:44;16.10;52.20
75517;DHT22;64097;52.548;13.406;2023-12-29T10:34:25;16.10;52.30
75517;DHT22;64097;52.548;13.406;2023-12-29T10:36:55;16.10;52.20
75517;DHT22;64097;52.548;13.406;2023-12-29T10:39:21;16.20;52.20
75517;DHT22;64097;52.548;13.406;2023-12-29T10:41:47;16.20;52.30
75517;DHT22;64097;52.548;13.406;2023-12-29T10:44:13;16.20;52.20
75517;DHT22;64097;52.548;13.406;2023-12-29T10:46:39;16.30;52.20
75517;DHT22;64097;52.548;13.406;2023-12-29T10:49:12;16.30;52.00
75517;DHT22;64097;52.548;13.406;2023-12-29T10:51:39;16.30;51.90
75517;DHT22;64097;52.548;13.406;2023-12-29T10:54:05;16.30;52.00
75517;DHT22;64097;52.548;13.406;2023-12-29T10:56:34;16.30;51.70
75517;DHT22;64097;52.548;13.406;2023-12-29T10:59:01;16.40;51.90
75517;DHT22;64097;52.548;13.406;2023-12-29T11:01:32;16.40;51.80
75517;DHT22;64097;52.548;13.406;2023-12-29T11:04:03;16.40;51.80
75517;DHT22;64097;52.548;13.406;2023-12-29T11:06:30;16.40;51.70
75517;DHT22;64097;52.548;13.406;2023-12-29T11:09:04;16.50;51.60
75517;DHT22;64097;52.548;13.406;2023-12-29T11:11:31;16.50;51.60
75517;DHT22;64097;52.548;13.406;2023-12-29T11:13:57;16.50;51.40
75517;DHT22;64097;52.548;13.406;2023-12-29T11:16:24;16.60;51.30
75517;DHT22;64097;52.548;13.406;2023-12-29T11:18:51;16.60;51.30
75517;DHT22;64097;52.548;13.406;2023-12-29T11:21:19;16.60;51.20
75517;DHT22;64097;52.548;13.406;2023-12-29T11:23:47;16.60;51.30
75517;DHT22;64097;52.548;13.406;2023-12-29T11:26:13;16.60;51.10
75517;DHT22;64097;52.548;13.406;2023-12-29T11:28:39;16.60;51.10
75517;DHT22;64097;52.548;13.406;2023-12-29T11:31:06;16.60;51.00
75517;DHT22;64097;52.548;13.406;2023-12-29T11:33:39;16.60;50.80
75517;DHT22;64097;52.548;13.406;2023-12-29T11:36:16;16.60;50.90
75517;DHT22;64097;52.548;13.406;2023-12-29T11:44:27;16.60;50.60
75517;DHT22;64097;52.548;13.406;2023-12-29T11:46:53;16.60;50.80
75517;DHT22;64097;52.548;13.406;2023-12-29T11:49:19;16.60;50.70
75517;DHT22;64097;52.548;13.406;2023-12-29T11:51:47;16.60;50.80
75517;DHT22;64097;52.548;13.406;2023-12-29T11:54:25;16.60;50.70
75517;DHT22;64097;52.548;13.406;2023-12-29T11:56:52;16.70;50.60
75517;DHT22;64097;52.548;13.406;2023-12-29T11:59:22;16.70;50.50
75517;DHT22;64097;52.548;13.406;2023-12-29T12:01:58;16.60;50.60
75517;DHT22;64097;52.548;13.406;2023-12-29T12:04:41;16.60;50.60
75517;DHT22;64097;52.548;13.406;2023-12-29T12:07:15;16.60;50.60
75517;DHT22;64097;52.548;13.406;2023-12-29T12:09:41;16.60;50.60
75517;DHT22;64097;52.548;13.406;2023-12-29T12:12:06;16.70;50.70
75517;DHT22;64097;52.548;13.406;2023-12-29T12:14:52;16.70;50.60
75517;DHT22;64097;52.548;13.406;2023-12-29T12:17:34;16.70;50.50
75517;DHT22;64097;52.548;13.406;2023-12-29T12:20:06;16.70;50.50
75517;DHT22;64097;52.548;13.406;2023-12-29T12:22:35;16.70;50.50
75517;DHT22;64097;52.548;13.406;2023-12-29T12:25:01;16.70;50.50
75517;DHT22;64097;52.548;13.406;2023-12-29T12:27:27;16.70;50.20
75517;DHT22;64097;52.548;13.406;2023-12-29T12:29:58;16.70;50.30
75517;DHT22;64097;52.548;13.406;2023-12-29T12:32:28;16.70;50.40
75517;DHT22;64097;52.548;13.406;2023-12-29T12:34:55;16.60;50.80
75517;DHT22;64097;52.548;13.406;2023-12-29T12:37:26;16.70;51.30
75517;DHT22;64097;52.548;13.406;2023-12-29T12:39:52;16.60;51.50
75517;DHT22;64097;52.548;13.406;2023-12-29T12:42:22;16.60;51.90
75517;DHT22;64097;52.548;13.406;2023-12-29T12:45:03;16.60;52.20
75517;DHT22;64097;52.548;13.406;2023-12-29T12:47:43;16.60;52.60
75517;DHT22;64097;52.548;13.406;2023-12-29T12:50:11;16.50;52.90
75517;DHT22;64097;52.548;13.406;2023-12-29T12:52:38;16.60;53.20
75517;DHT22;64097;52.548;13.406;2023-12-29T12:55:05;16.50;53.40
75517;DHT22;64097;52.548;13.406;2023-12-29T12:57:32;16.50;53.60
75517;DHT22;64097;52.548;13.406;2023-12-29T13:00:00;16.50;53.80
75517;DHT22;64097;52.548;13.406;2023-12-29T13:02:26;16.50;54.00
75517;DHT22;64097;52.548;13.406;2023-12-29T13:04:53;16.40;54.10
75517;DHT22;64097;52.548;13.406;2023-12-29T13:07:19;16.40;54.40
75517;DHT22;64097;52.548;13.406;2023-12-29T13:09:52;16.40;54.50
75517;DHT22;64097;52.548;13.406;2023-12-29T13:12:18;16.40;54.50
75517;DHT22;64097;52.548;13.406;2023-12-29T13:14:45;16.40;54.60
75517;DHT22;64097;52.548;13.406;2023-12-29T13:17:14;16.40;54.80
75517;DHT22;64097;52.548;13.406;2023-12-29T13:19:43;16.40;54.90
75517;DHT22;64097;52.548;13.406;2023-12-29T13:22:11;16.40;54.90
75517;DHT22;64097;52.548;13.406;2023-12-29T13:24:44;16.30;54.80
75517;DHT22;64097;52.548;13.406;2023-12-29T13:27:11;16.30;54.80
75517;DHT22;64097;52.548;13.406;2023-12-29T13:29:38;16.30;54.80
75517;DHT22;64097;52.548;13.406;2023-12-29T13:32:10;16.40;54.70
75517;DHT22;64097;52.548;13.406;2023-12-29T13:40:33;16.30;54.60
75517;DHT22;64097;52.548;13.406;2023-12-29T13:42:49;16.30;54.60
75517;DHT22;64097;52.548;13.406;2023-12-29T13:45:17;16.30;54.50
75517;DHT22;64097;52.548;13.406;2023-12-29T13:47:45;16.40;54.50
75517;DHT22;64097;52.548;13.406;2023-12-29T13:50:11;16.40;54.60
75517;DHT22;64097;52.548;13.406;2023-12-29T13:52:37;16.30;54.40
75517;DHT22;64097;52.548;13.406;2023-12-29T13:55:04;16.30;54.40
75517;DHT22;64097;52.548;13.406;2023-12-29T13:57:34;16.40;54.50
